Time;durP1;ratioP1;P1;durP2;ratioP2;P2;SDS_P1;SDS_P2;PMS_P1;PMS_P2;Temp;Humidity;BMP_temperature;BMP_pressure;BME280_temperature;BME280_humidity;BME280_pressure;Samples;Min_cycle;Max_cycle;Signal;HPM_P1;HPM_P2
2023/09/16 00:02:37;;;;;;;7.37;6.30;;;;;;;-145.68;100.00;74419.34;10404231;28;20201;-74
2023/09/16 00:07:38;;;;;;;7.30;6.60;;;;;;;-145.68;100.00;74415.34;10405656;28;20217;-74
2023/09/16 00:12:38;;;;;;;7.37;6.57;;;;;;;-145.68;100.00;74413.34;10406215;28;20574;-74
2023/09/16 00:17:39;;;;;;;10.33;6.87;;;;;;;-145.68;100.00;74393.34;10403052;28;20785;-74
2023/09/16 00:22:41;;;;;;;8.73;7.83;;;;;;;-145.68;100.00;74325.38;10408038;28;20703;-75
2023/09/16 00:27:42;;;;;;;8.73;7.43;;;;;;;-145.68;100.00;74321.38;10404325;28;20220;-74
2023/09/16 00:32:43;;;;;;;11.97;7.63;;;;;;;-145.68;100.00;74295.41;10405351;28;20263;-74
2023/09/16 00:37:43;;;;;;;8.60;7.37;;;;;;;-145.68;100.00;74331.38;10405924;28;20649;-75
2023/09/16 00:42:44;;;;;;;7.83;6.93;;;;;;;-145.68;100.00;74317.38;10387802;28;20200;-75
2023/09/16 00:47:44;;;;;;;11.27;9.40;;;;;;;-145.68;100.00;74283.41;10387164;28;20228;-74
2023/09/16 00:52:50;;;;;;;10.37;8.63;;;;;;;-145.68;100.00;74223.44;10370321;28;20205;-74
2023/09/16 00:57:52;;;;;;;9.60;8.43;;;;;;;-145.68;100.00;74007.53;10368134;28;20193;-74
2023/09/16 01:02:54;;;;;;;10.07;7.63;;;;;;;-145.68;100.00;73903.56;10387623;28;20196;-73
2023/09/16 01:07:54;;;;;;;8.70;6.13;;;;;;;-145.68;100.00;73831.59;10403603;28;20225;-74
2023/09/16 01:12:55;;;;;;;7.25;5.68;;;;;;;-145.68;100.00;73795.63;10404935;28;20664;-74
2023/09/16 01:18:15;;;;;;;8.45;6.15;;;;;;;-145.68;100.00;73777.63;10378827;28;20200;-74
2023/09/16 01:23:18;;;;;;;7.43;5.47;;;;;;;-145.68;100.00;73767.66;10393954;28;20327;-74
2023/09/16 01:28:18;;;;;;;8.57;5.40;;;;;;;-145.68;100.00;73745.66;10411894;28;20220;-74
2023/09/16 01:33:30;;;;;;;7.93;5.47;;;;;;;-145.68;100.00;73761.66;10388099;28;20197;-74
2023/09/16 01:38:32;;;;;;;8.77;5.25;;;;;;;-145.68;100.00;73785.63;10377432;28;20185;-74
2023/09/16 01:43:33;;;;;;;9.77;6.15;;;;;;;-145.68;100.00;73803.63;10391400;28;20287;-74
2023/09/16 01:48:33;;;;;;;8.32;5.70;;;;;;;-145.68;100.00;73791.63;10410790;28;20240;-74
2023/09/16 01:53:33;;;;;;;8.00;5.80;;;;;;;-145.68;100.00;73771.63;10390400;28;20723;-74
2023/09/16 01:58:34;;;;;;;8.27;5.82;;;;;;;-145.68;100.00;73777.63;10410636;28;20532;-74
2023/09/16 02:03:35;;;;;;;6.45;5.55;;;;;;;-145.68;100.00;73819.63;10391657;28;20200;-75
2023/09/16 02:08:35;;;;;;;9.32;5.88;;;;;;;-145.68;100.00;73847.59;10392004;28;20221;-74
2023/09/16 02:13:36;;;;;;;5.72;5.22;;;;;;;-145.68;100.00;73849.59;10392615;28;20197;-75
2023/09/16 02:18:36;;;;;;;8.05;5.63;;;;;;;-145.68;100.00;73863.59;10407804;28;20668;-74
2023/09/16 02:23:37;;;;;;;6.20;5.40;;;;;;;-145.68;100.00;73881.59;10390886;28;20192;-74
2023/09/16 02:28:40;;;;;;;9.65;6.22;;;;;;;-145.68;100.00;73905.56;10409815;28;20230;-75
2023/09/16 02:33:40;;;;;;;7.78;6.30;;;;;;;-145.68;100.00;73903.56;10406924;28;20669;-75
2023/09/16 02:38:40;;;;;;;9.52;6.20;;;;;;;-145.68;100.00;73891.56;10408431;28;20192;-75
2023/09/16 02:43:41;;;;;;;6.97;6.13;;;;;;;-145.68;100.00;73875.59;10389510;28;20185;-75
2023/09/16 02:48:41;;;;;;;6.97;5.95;;;;;;;-145.68;100.00;73905.56;10390339;28;20735;-74
2023/09/16 02:53:42;;;;;;;7.88;5.50;;;;;;;-145.68;100.00;73913.56;10388976;28;20196;-75
2023/09/16 02:58:43;;;;;;;6.95;4.93;;;;;;;-145.68;100.00;73937.56;10373660;28;20649;-75
2023/09/16 03:03:43;;;;;;;7.32;5.80;;;;;;;-145.68;100.00;73993.53;10373937;28;20196;-75
2023/09/16 03:08:44;;;;;;;10.68;6.78;;;;;;;-145.68;100.00;74029.50;10387206;28;20217;-74
2023/09/16 03:13:45;;;;;;;8.68;6.90;;;;;;;-145.68;100.00;74057.50;10407357;28;20444;-75
2023/09/16 03:18:47;;;;;;;7.97;7.15;;;;;;;-145.68;100.00;74073.50;10388619;28;20234;-75
2023/09/16 03:23:48;;;;;;;9.20;7.28;;;;;;;-145.68;100.00;74075.50;10388524;28;20763;-75
2023/09/16 03:28:48;;;;;;;7.65;6.47;;;;;;;-145.68;100.00;74093.47;10407678;28;20637;-75
2023/09/16 03:33:50;;;;;;;9.90;7.40;;;;;;;-145.68;100.00;74095.47;10384595;28;20661;-74
2023/09/16 03:38:51;;;;;;;10.13;7.03;;;;;;;-145.68;100.00;74105.47;10388182;28;20199;-74
2023/09/16 03:43:51;;;;;;;7.20;6.47;;;;;;;-145.68;100.00;74119.47;10388726;28;20197;-74
2023/09/16 03:48:55;;;;;;;10.10;6.90;;;;;;;-145.68;100.00;74129.47;10386644;28;20724;-74
2023/09/16 03:53:57;;;;;;;8.53;7.03;;;;;;;-145.68;100.00;74141.47;10388144;28;20311;-74
2023/09/16 03:58:58;;;;;;;9.10;7.30;;;;;;;-145.68;100.00;74159.44;10387906;28;20185;-74
2023/09/16 04:04:00;;;;;;;10.10;7.03;;;;;;;-145.68;100.00;74163.44;10387926;28;20653;-75
2023/09/16 04:09:00;;;;;;;8.30;7.20;;;;;;;-145.68;100.00;74179.44;10386703;28;20270;-74
2023/09/16 04:14:01;;;;;;;8.27;7.13;;;;;;;-145.68;100.00;74171.44;10405615;28;20207;-74
2023/09/16 04:19:01;;;;;;;8.97;6.77;;;;;;;-145.68;100.00;74195.44;10405121;28;20195;-74
2023/09/16 04:24:02;;;;;;;8.43;7.40;;;;;;;-145.68;100.00;74211.44;10386090;28;20192;-74
2023/09/16 04:29:03;;;;;;;14.00;7.57;;;;;;;-145.68;100.00;74211.44;10386997;28;20240;-75
2023/09/16 04:34:04;;;;;;;11.17;7.77;;;;;;;-145.68;100.00;74219.44;10369222;28;20180;-75
2023/09/16 04:39:05;;;;;;;9.97;7.17;;;;;;;-145.68;100.00;74197.44;10387107;28;20205;-75
2023/09/16 04:44:08;;;;;;;10.33;7.00;;;;;;;-145.68;100.00;74187.44;10386959;28;20679;-75
2023/09/16 04:49:09;;;;;;;9.83;7.37;;;;;;;-145.68;100.00;74199.44;10369232;28;20227;-75
2023/09/16 04:54:10;;;;;;;11.27;6.90;;;;;;;-145.68;100.00;74209.44;10386257;28;20192;-75
2023/09/16 04:59:11;;;;;;;10.83;7.23;;;;;;;-145.68;100.00;74203.44;10380406;28;20177;-75
2023/09/16 05:04:12;;;;;;;9.10;7.05;;;;;;;-145.68;100.00;74199.44;10371681;28;20199;-75
2023/09/16 05:09:14;;;;;;;9.88;6.93;;;;;;;-145.68;100.00;74215.44;10387010;28;20217;-75
2023/09/16 05:14:15;;;;;;;11.40;6.70;;;;;;;-145.68;100.00;74239.41;10384729;28;20188;-75
2023/09/16 05:19:16;;;;;;;9.63;7.33;;;;;;;-145.68;100.00;74253.41;10385631;28;20189;-75
2023/09/16 05:24:17;;;;;;;7.53;6.83;;;;;;;-145.68;100.00;74243.41;10387806;28;20189;-74
2023/09/16 05:29:17;;;;;;;10.33;6.63;;;;;;;-145.68;100.00;74255.41;10384802;28;20715;-74
2023/09/16 05:34:18;;;;;;;9.00;6.80;;;;;;;-145.68;100.00;74269.41;10385314;28;20333;-74
2023/09/16 05:39:19;;;;;;;10.73;7.30;;;;;;;-145.68;100.00;74263.41;10384558;28;20561;-74
2023/09/16 05:44:21;;;;;;;12.50;7.37;;;;;;;-145.68;100.00;74251.41;10396409;28;20202;-75
2023/09/16 05:49:22;;;;;;;9.70;6.90;;;;;;;-145.68;100.00;74249.41;10396620;28;20609;-74
2023/09/16 05:54:26;;;;;;;7.80;7.00;;;;;;;-145.68;100.00;74227.41;10401558;28;20398;-74
2023/09/16 05:59:27;;;;;;;8.03;7.20;;;;;;;-145.68;100.00;74163.44;10396336;28;20243;-74
2023/09/16 06:04:30;;;;;;;8.88;5.32;;;;;;;-145.68;100.00;74051.50;10395762;28;20219;-75
2023/09/16 06:09:30;;;;;;;8.65;5.13;;;;;;;-145.68;100.00;74001.53;10395263;28;20247;-75
2023/09/16 06:14:31;;;;;;;9.65;4.72;;;;;;;-145.68;100.00;73883.59;10404472;28;20679;-75
2023/09/16 06:19:32;;;;;;;6.28;4.22;;;;;;;-145.68;100.00;73779.63;10394286;28;20197;-75
2023/09/16 06:24:33;;;;;;;9.60;4.35;;;;;;;-145.68;100.00;73745.66;10392017;28;20585;-75
2023/09/16 06:29:33;;;;;;;7.80;4.03;;;;;;;-145.68;100.00;73685.69;10375394;28;20230;-75
2023/09/16 06:34:34;;;;;;;8.88;4.45;;;;;;;-145.68;94.89;73607.72;10391538;28;20653;-75
2023/09/16 06:39:34;;;;;;;4.80;3.95;;;;;;;-145.68;93.09;73589.75;10409515;28;20216;-75
2023/09/16 06:44:35;;;;;;;9.75;3.67;;;;;;;-145.68;90.59;73535.78;10408207;28;20352;-75
2023/09/16 06:49:35;;;;;;;5.30;3.33;;;;;;;-145.68;88.45;73549.75;10435967;28;20232;-74
2023/09/16 06:54:35;;;;;;;5.25;3.28;;;;;;;-145.68;85.76;73467.81;10452758;28;20235;-75
2023/09/16 06:59:36;;;;;;;5.38;3.50;;;;;;;-145.68;82.77;73451.81;10443832;28;20199;-74
2023/09/16 07:04:40;;;;;;;5.03;3.58;;;;;;;-145.68;84.61;73447.81;10453040;28;20593;-75
2023/09/16 07:09:40;;;;;;;4.85;3.58;;;;;;;-145.68;76.68;73275.94;10444761;28;20216;-75
2023/09/16 07:14:41;;;;;;;4.10;3.03;;;;;;;-145.68;71.30;73154.03;10450592;28;20184;-75
2023/09/16 07:19:41;;;;;;;5.28;3.60;;;;;;;-145.68;66.76;73062.09;10450805;28;20387;-75
2023/09/16 07:24:42;;;;;;;4.05;2.83;;;;;;;-145.68;61.68;72898.19;10462518;28;20515;-75
2023/09/16 07:29:43;;;;;;;3.42;3.13;;;;;;;-145.68;61.34;72888.22;10455434;28;20497;-73
2023/09/16 07:34:44;;;;;;;5.32;2.75;;;;;;;-145.68;61.01;72824.25;10451906;28;20196;-71
2023/09/16 07:39:46;;;;;;;4.32;3.30;;;;;;;-145.68;54.29;72704.34;10430055;28;20251;-71
2023/09/16 07:44:46;;;;;;;6.68;3.33;;;;;;;-145.68;54.50;72716.34;10428567;28;20200;-73
2023/09/16 07:50:12;;;;;;;6.13;3.38;;;;;;;-145.68;53.21;72742.31;10473932;28;20718;-73
2023/09/16 07:55:13;;;;;;;7.55;4.18;;;;;;;-145.68;56.33;72880.22;10463945;28;20195;-75
2023/09/16 08:00:14;;;;;;;6.55;4.15;;;;;;;-145.68;55.40;72838.25;10462279;28;20670;-75
2023/09/16 08:05:14;;;;;;;4.93;3.40;;;;;;;-145.68;55.38;72856.22;10453484;28;20279;-75
2023/09/16 08:10:14;;;;;;;6.35;3.70;;;;;;;-145.68;56.04;72876.22;10455129;28;20731;-75
2023/09/16 08:15:15;;;;;;;7.53;3.50;;;;;;;-145.68;56.04;72836.25;10466168;28;20195;-74
2023/09/16 08:20:18;;;;;;;5.10;3.55;;;;;;;-145.68;54.91;72828.25;10455709;28;20656;-76
2023/09/16 08:25:19;;;;;;;4.13;3.63;;;;;;;-145.68;53.68;72740.31;10460687;28;20274;-75
2023/09/16 08:30:21;;;;;;;4.00;3.35;;;;;;;-145.68;53.44;72736.31;10452626;28;20651;-75
2023/09/16 08:35:25;;;;;;;6.50;3.72;;;;;;;-145.68;53.89;72764.31;10450217;28;20191;-76
2023/09/16 08:40:25;;;;;;;4.47;3.67;;;;;;;-145.68;51.90;72656.41;10444182;28;20188;-75
2023/09/16 08:45:28;;;;;;;5.65;3.00;;;;;;;-145.68;49.12;72502.53;10463707;28;20187;-75
2023/09/16 08:50:30;;;;;;;6.60;3.20;;;;;;;-145.68;49.00;72532.50;10451364;28;20318;-74
2023/09/16 08:55:32;;;;;;;5.28;3.17;;;;;;;-145.68;48.47;72428.59;10458315;28;20843;-74
2023/09/16 09:01:03;;;;;;;4.72;3.42;;;;;;;-145.68;46.55;72408.59;10453711;28;20239;-73
2023/09/16 09:06:04;;;;;;;4.38;3.13;;;;;;;-145.68;49.88;72624.41;10439564;28;20232;-74
2023/09/16 09:11:06;;;;;;;5.82;3.42;;;;;;;-145.68;50.23;72592.44;10469405;28;20569;-74
2023/09/16 09:16:06;;;;;;;3.88;3.22;;;;;;;-145.68;49.20;72574.47;10434306;28;20187;-73
2023/09/16 09:22:05;;;;;;;3.83;2.97;;;;;;;-145.68;49.68;72676.38;10438968;28;20205;-76
2023/09/16 09:27:06;;;;;;;5.97;4.03;;;;;;;-145.68;49.98;72664.38;10447719;28;20747;-75
2023/09/16 09:32:09;;;;;;;6.10;3.30;;;;;;;-145.68;49.83;72548.47;10444372;28;20199;-75
2023/09/16 09:37:15;;;;;;;4.95;3.72;;;;;;;-145.68;47.64;72368.63;10449191;28;20200;-75
2023/09/16 09:42:22;;;;;;;3.88;3.10;;;;;;;-145.68;48.78;72582.44;10457427;28;20188;-75
2023/09/16 09:47:22;;;;;;;4.75;3.15;;;;;;;-145.68;46.41;72400.59;10436994;28;20223;-75
2023/09/16 09:52:23;;;;;;;3.20;2.85;;;;;;;-145.68;47.12;72410.59;10436293;28;20651;-75
2023/09/16 09:57:25;;;;;;;3.35;2.92;;;;;;;-145.68;46.56;72384.63;10433818;28;20222;-76
2023/09/16 10:02:26;;;;;;;3.47;3.15;;;;;;;-145.68;45.34;72388.63;10441566;28;20195;-75
2023/09/16 10:07:26;;;;;;;4.32;3.13;;;;;;;-145.68;45.53;72302.69;10450686;28;20222;-75
2023/09/16 10:12:27;;;;;;;5.28;3.38;;;;;;;-145.68;43.36;72110.88;10450202;28;20199;-75
2023/09/16 10:17:27;;;;;;;5.57;3.13;;;;;;;-145.68;42.65;72144.84;10418364;28;20194;-75
2023/09/16 10:22:29;;;;;;;4.05;3.15;;;;;;;-145.68;43.59;72206.78;10439925;28;20221;-74
2023/09/16 10:27:33;;;;;;;3.17;2.70;;;;;;;-145.68;44.81;72334.66;10435879;28;20231;-75
2023/09/16 10:32:34;;;;;;;3.20;2.85;;;;;;;-145.68;45.04;72278.72;10454178;28;20242;-75
2023/09/16 10:37:35;;;;;;;2.85;2.60;;;;;;;-145.68;43.84;72236.75;10433191;28;20656;-75
2023/09/16 10:42:37;;;;;;;5.85;3.15;;;;;;;-145.68;44.92;72278.72;10459848;28;20211;-75
2023/09/16 10:47:37;;;;;;;3.25;2.90;;;;;;;-145.68;41.71;72106.88;10453626;28;20243;-75
2023/09/16 10:52:47;;;;;;;2.92;2.70;;;;;;;-145.68;44.03;72340.66;10432560;28;20597;-75
2023/09/16 10:57:54;;;;;;;3.58;3.20;;;;;;;-145.68;43.79;72250.75;10418913;28;20246;-75
2023/09/16 11:02:59;;;;;;;4.05;2.85;;;;;;;-145.68;43.51;72316.69;10448047;28;20667;-75
2023/09/16 11:07:59;;;;;;;3.60;3.22;;;;;;;-145.68;43.70;72270.72;10453019;28;20226;-76
2023/09/16 11:13:00;;;;;;;4.15;3.45;;;;;;;-145.68;45.59;72452.56;10431234;28;20571;-75
2023/09/16 11:18:04;;;;;;;3.53;3.22;;;;;;;-145.68;46.09;72398.63;10401390;28;20203;-76
2023/09/16 11:23:06;;;;;;;4.28;3.60;;;;;;;-145.68;44.22;72242.75;10433887;28;20338;-76
2023/09/16 11:28:09;;;;;;;3.80;3.22;;;;;;;-145.68;44.05;72360.66;10453803;28;20219;-76
2023/09/16 11:33:46;;;;;;;3.30;2.72;;;;;;;-145.68;43.64;72232.75;10460185;28;20199;-77
2023/09/16 11:39:15;;;;;;;3.80;3.00;;;;;;;-145.68;43.54;72204.78;10437144;28;20200;-78
2023/09/16 11:44:15;;;;;;;3.97;3.28;;;;;;;-145.68;43.76;72284.72;10445171;28;20219;-77
2023/09/16 11:49:16;;;;;;;5.70;3.25;;;;;;;-145.68;43.49;72192.78;10429917;28;20794;-77
2023/09/16 11:54:18;;;;;;;9.77;3.10;;;;;;;-145.68;43.11;72200.78;10448070;28;20187;-77
2023/09/16 11:59:18;;;;;;;3.67;3.15;;;;;;;-145.68;42.76;72198.78;10447488;28;20184;-77
2023/09/16 12:04:20;;;;;;;20.08;3.85;;;;;;;-145.68;41.37;72020.97;10433889;28;20199;-77
2023/09/16 12:09:22;;;;;;;6.30;3.22;;;;;;;-145.68;41.28;72052.94;10467502;28;20762;-77
2023/09/16 12:14:51;;;;;;;5.35;3.10;;;;;;;-145.68;42.41;72156.84;10432540;28;20215;-78
2023/09/16 12:20:07;;;;;;;4.20;2.90;;;;;;;-145.68;40.36;72052.94;10428223;28;20188;-77
2023/09/16 12:25:09;;;;;;;4.18;3.42;;;;;;;-145.68;42.45;72248.75;10446850;28;20683;-77
2023/09/16 12:30:16;;;;;;;4.78;2.90;;;;;;;-145.68;41.87;72158.84;10412623;28;20235;-78
2023/09/16 12:35:19;;;;;;;7.05;3.20;;;;;;;-145.68;42.18;72238.75;10442769;28;20262;-77
2023/09/16 12:40:21;;;;;;;3.97;3.30;;;;;;;-145.68;42.69;72180.81;10430604;28;20235;-77
2023/09/16 12:45:26;;;;;;;6.40;3.20;;;;;;;-145.68;42.55;72136.84;10444769;28;20561;-77
2023/09/16 12:50:36;;;;;;;3.70;2.85;;;;;;;-145.68;41.31;72170.81;10445197;28;20600;-76
2023/09/16 12:55:38;;;;;;;3.65;3.35;;;;;;;-145.68;40.78;72032.94;10427759;28;20195;-75
2023/09/16 13:00:39;;;;;;;4.35;3.00;;;;;;;-145.68;41.33;72188.81;10435170;28;20676;-75
2023/09/16 13:05:48;;;;;;;4.82;3.05;;;;;;;-145.68;42.38;72246.75;10453495;28;20195;-75
2023/09/16 13:10:49;;;;;;;3.13;2.83;;;;;;;-145.68;40.82;72128.84;10429680;28;20195;-75
2023/09/16 13:15:50;;;;;;;3.70;2.92;;;;;;;-145.68;40.93;72130.84;10445937;28;20526;-74
2023/09/16 13:20:55;;;;;;;3.58;2.80;;;;;;;-145.68;40.95;72132.84;10416490;28;20755;-74
2023/09/16 13:26:10;;;;;;;2.55;2.35;;;;;;;-145.68;40.65;72092.91;10466526;28;20238;-74
2023/09/16 13:31:10;;;;;;;3.15;2.85;;;;;;;-145.68;40.74;72028.94;10452361;28;20640;-75
2023/09/16 13:36:11;;;;;;;3.38;2.70;;;;;;;-145.68;40.74;72052.94;10445022;28;20206;-75
2023/09/16 13:41:11;;;;;;;3.58;2.60;;;;;;;-145.68;39.33;71905.06;10438873;28;20191;-75
2023/09/16 13:46:11;;;;;;;5.57;3.25;;;;;;;-145.68;41.33;72104.88;10436467;28;20251;-75
2023/09/16 13:51:14;;;;;;;3.25;2.95;;;;;;;-145.68;40.97;72004.97;10453525;28;20240;-74
2023/09/16 13:56:15;;;;;;;4.93;2.88;;;;;;;-145.68;41.11;72064.91;10437809;28;20188;-74
2023/09/16 14:01:16;;;;;;;3.22;2.92;;;;;;;-145.68;40.53;72052.94;10438378;28;20192;-75
2023/09/16 14:06:16;;;;;;;4.22;2.80;;;;;;;-145.68;40.67;72084.91;10434512;28;20255;-75
2023/09/16 14:11:19;;;;;;;3.47;3.03;;;;;;;-145.68;41.75;72172.81;10453103;28;20556;-75
2023/09/16 14:16:20;;;;;;;3.67;2.85;;;;;;;-145.68;40.37;72048.94;10451513;28;20188;-75
2023/09/16 14:21:20;;;;;;;4.40;2.72;;;;;;;-145.68;39.29;71933.03;10456273;28;20197;-75
2023/09/16 14:26:20;;;;;;;3.25;2.60;;;;;;;-145.68;40.27;72036.94;10451584;28;20220;-75
2023/09/16 14:31:21;;;;;;;4.50;2.80;;;;;;;-145.68;40.68;72028.94;10433548;28;20196;-75
2023/09/16 14:36:21;;;;;;;4.43;3.13;;;;;;;-145.68;41.08;72072.91;10417461;28;20623;-75
2023/09/16 14:41:22;;;;;;;3.28;2.97;;;;;;;-145.68;40.81;72052.94;10456971;28;20195;-75
2023/09/16 14:46:22;;;;;;;5.22;2.60;;;;;;;-145.68;39.05;71883.09;10416282;28;20215;-76
2023/09/16 14:51:24;;;;;;;3.40;2.60;;;;;;;-145.68;40.67;72018.97;10450551;28;20318;-75
2023/09/16 14:56:24;;;;;;;2.65;2.35;;;;;;;-145.68;37.26;71663.31;10454235;28;20507;-76
2023/09/16 15:01:25;;;;;;;3.35;3.03;;;;;;;-145.68;37.94;71777.22;10451298;28;20204;-75
2023/09/16 15:06:25;;;;;;;6.53;2.83;;;;;;;-145.68;39.06;71871.09;10417346;28;20261;-75
2023/09/16 15:11:26;;;;;;;3.13;2.83;;;;;;;-145.68;38.53;71847.13;10461416;28;20831;-75
2023/09/16 15:16:27;;;;;;;4.68;3.03;;;;;;;-145.68;38.83;71875.09;10441739;28;20187;-75
2023/09/16 15:21:27;;;;;;;3.72;2.92;;;;;;;-145.68;39.59;71973.00;10453865;28;20648;-76
2023/09/16 15:26:27;;;;;;;3.33;2.92;;;;;;;-145.68;38.34;71785.19;10449062;28;20211;-75
2023/09/16 15:31:28;;;;;;;4.80;2.83;;;;;;;-145.68;39.33;71935.03;10448680;28;20196;-76
2023/09/16 15:36:28;;;;;;;4.20;3.10;;;;;;;-145.68;39.58;71939.03;10455826;28;20319;-75
2023/09/16 15:41:29;;;;;;;3.75;2.95;;;;;;;-145.68;39.12;71931.06;10449354;28;20192;-75
2023/09/16 15:46:30;;;;;;;4.43;3.38;;;;;;;-145.68;40.24;71987.00;10447147;28;20220;-75
2023/09/16 15:51:31;;;;;;;4.25;3.05;;;;;;;-145.68;40.69;72032.94;10448473;28;20206;-75
2023/09/16 15:56:31;;;;;;;4.82;3.40;;;;;;;-145.68;40.32;71981.00;10452026;28;20195;-75
2023/09/16 16:01:31;;;;;;;4.25;2.83;;;;;;;-145.68;40.64;72012.97;10448095;28;20196;-75
2023/09/16 16:06:32;;;;;;;4.37;3.60;;;;;;;-145.68;40.51;71993.00;10447956;28;20334;-75
2023/09/16 16:11:33;;;;;;;3.97;3.40;;;;;;;-145.68;42.72;72182.81;10447613;28;20465;-75
2023/09/16 16:16:33;;;;;;;3.58;3.20;;;;;;;-145.68;44.71;72324.69;10446179;28;20192;-75
2023/09/16 16:21:33;;;;;;;4.20;3.80;;;;;;;-145.68;47.31;72456.56;10424472;28;20196;-75
2023/09/16 16:26:35;;;;;;;4.78;3.88;;;;;;;-145.68;49.29;72556.47;10441370;28;20575;-75
2023/09/16 16:31:35;;;;;;;6.78;3.90;;;;;;;-145.68;50.51;72588.44;10444327;28;20299;-75
2023/09/16 16:36:36;;;;;;;5.40;4.40;;;;;;;-145.68;52.14;72660.38;10445555;28;20196;-75
2023/09/16 16:41:36;;;;;;;5.90;4.40;;;;;;;-145.68;53.39;72698.34;10447293;28;20200;-75
2023/09/16 16:46:37;;;;;;;8.73;4.20;;;;;;;-145.68;54.24;72710.34;10445225;28;20447;-75
2023/09/16 16:51:37;;;;;;;6.70;4.18;;;;;;;-145.68;55.87;72764.31;10448868;28;20248;-75
2023/09/16 16:56:38;;;;;;;4.63;4.20;;;;;;;-145.68;56.42;72758.31;10439972;28;20593;-75
2023/09/16 17:01:38;;;;;;;5.68;4.22;;;;;;;-145.68;58.03;72822.25;10439899;28;20200;-74
2023/09/16 17:06:38;;;;;;;6.95;3.90;;;;;;;-145.68;60.49;72856.22;10439742;28;20273;-75
2023/09/16 17:11:39;;;;;;;9.15;4.35;;;;;;;-145.68;62.19;72912.19;10448245;28;20790;-74
2023/09/16 17:16:42;;;;;;;6.93;4.63;;;;;;;-145.68;64.92;72952.16;10439823;28;20279;-75
2023/09/16 17:21:43;;;;;;;5.50;5.00;;;;;;;-145.68;66.65;72980.13;10439277;28;20195;-75
2023/09/16 17:26:43;;;;;;;9.05;5.40;;;;;;;-145.68;70.14;73028.09;10439966;28;20207;-75
2023/09/16 17:31:44;;;;;;;10.27;5.43;;;;;;;-145.68;72.09;73026.09;10446021;28;20618;-74
2023/09/16 17:36:44;;;;;;;8.52;5.68;;;;;;;-145.68;75.99;73064.09;10438964;28;20188;-75
2023/09/16 17:41:44;;;;;;;8.40;5.93;;;;;;;-145.68;78.43;73084.06;10421967;28;20244;-75
2023/09/16 17:46:45;;;;;;;5.20;4.70;;;;;;;-145.68;81.16;73122.03;10439841;28;20373;-75
2023/09/16 17:51:45;;;;;;;9.65;5.93;;;;;;;-145.68;85.72;73168.00;10446327;28;20230;-75
2023/09/16 17:56:46;;;;;;;8.80;5.82;;;;;;;-145.68;87.96;73178.00;10442319;28;20195;-75
2023/09/16 18:01:46;;;;;;;6.75;5.95;;;;;;;-145.68;88.80;73182.00;10433835;28;20220;-74
2023/09/16 18:06:46;;;;;;;8.98;6.00;;;;;;;-145.68;90.44;73211.97;10450655;28;20223;-75
2023/09/16 18:11:47;;;;;;;7.35;5.63;;;;;;;-145.68;92.78;73223.97;10449342;28;20188;-75
2023/09/16 18:16:47;;;;;;;7.20;6.50;;;;;;;-145.68;94.81;73245.97;10446441;28;20269;-75
2023/09/16 18:21:47;;;;;;;8.88;6.32;;;;;;;-145.68;96.47;73267.94;10445443;28;20656;-74
2023/09/16 18:26:48;;;;;;;8.02;6.50;;;;;;;-145.68;97.92;73289.94;10457785;28;20765;-74
2023/09/16 18:31:48;;;;;;;9.90;6.47;;;;;;;-145.68;100.00;73307.91;10443954;28;20525;-75
2023/09/16 18:36:49;;;;;;;8.98;6.38;;;;;;;-145.68;100.00;73317.91;10444795;28;20207;-75
2023/09/16 18:41:49;;;;;;;15.20;6.82;;;;;;;-145.68;100.00;73337.91;10445765;28;20192;-75
2023/09/16 18:46:50;;;;;;;8.80;7.15;;;;;;;-145.68;100.00;73331.91;10453390;28;20227;-75
2023/09/16 18:51:51;;;;;;;14.13;6.45;;;;;;;-145.68;100.00;73345.88;10449181;28;20675;-75
2023/09/16 18:56:59;;;;;;;8.48;6.60;;;;;;;-145.68;100.00;73357.88;10444834;28;20271;-74
2023/09/16 19:01:59;;;;;;;9.23;6.15;;;;;;;-145.68;100.00;73345.88;10445290;28;20191;-75
2023/09/16 19:06:59;;;;;;;7.72;6.97;;;;;;;-145.68;100.00;73363.88;10433956;28;20230;-75
2023/09/16 19:12:00;;;;;;;7.40;6.57;;;;;;;-145.68;100.00;73367.88;10444712;28;20254;-74
2023/09/16 19:17:03;;;;;;;8.52;7.03;;;;;;;-145.68;100.00;73381.88;10444409;28;20196;-76
2023/09/16 19:22:05;;;;;;;7.70;6.47;;;;;;;-145.68;100.00;73393.84;10447806;28;20199;-74
2023/09/16 19:27:06;;;;;;;7.55;6.57;;;;;;;-145.68;100.00;73411.84;10448090;28;20220;-73
2023/09/16 19:32:06;;;;;;;8.70;6.97;;;;;;;-145.68;100.00;73413.84;10406023;28;20652;-75
2023/09/16 19:37:09;;;;;;;8.05;6.45;;;;;;;-145.68;100.00;73427.84;10427911;28;20207;-74
2023/09/16 19:42:09;;;;;;;9.60;6.00;;;;;;;-145.68;100.00;73411.84;10452091;28;20196;-74
2023/09/16 19:47:10;;;;;;;6.38;5.78;;;;;;;-145.68;100.00;73409.84;10446729;28;20238;-74
2023/09/16 19:52:10;;;;;;;7.80;6.38;;;;;;;-145.68;100.00;73429.84;10430019;28;20188;-74
2023/09/16 19:57:11;;;;;;;7.03;6.28;;;;;;;-145.68;100.00;73423.84;10447635;28;20238;-75
2023/09/16 20:02:11;;;;;;;9.55;6.30;;;;;;;-145.68;100.00;73421.84;10450937;28;20226;-75
2023/09/16 20:07:12;;;;;;;6.85;5.97;;;;;;;-145.68;100.00;73411.84;10428740;28;20219;-75
2023/09/16 20:12:12;;;;;;;13.25;6.10;;;;;;;-145.68;100.00;73423.84;10447105;28;20615;-75
2023/09/16 20:17:13;;;;;;;7.70;5.97;;;;;;;-145.68;100.00;73421.84;10445729;28;20636;-74
2023/09/16 20:27:50;;;;;;;7.93;6.55;;;;;;;-145.68;100.00;73431.84;10358089;28;20771;-75
2023/09/16 20:32:53;;;;;;;8.18;6.72;;;;;;;-145.68;100.00;73431.84;10439468;28;20196;-75
2023/09/16 20:37:55;;;;;;;8.43;6.68;;;;;;;-145.68;100.00;73439.84;10430860;28;20250;-75
2023/09/16 20:42:56;;;;;;;8.25;6.00;;;;;;;-145.68;100.00;73435.84;10449373;28;20226;-75
2023/09/16 20:47:56;;;;;;;7.13;6.40;;;;;;;-145.68;100.00;73441.81;10444581;28;20307;-75
2023/09/16 20:52:57;;;;;;;8.77;6.10;;;;;;;-145.68;100.00;73443.84;10445819;28;20210;-75
2023/09/16 20:57:58;;;;;;;9.40;5.78;;;;;;;-145.68;100.00;73427.84;10447287;28;20239;-74
2023/09/16 21:02:59;;;;;;;7.93;5.90;;;;;;;-145.68;100.00;73439.84;10430441;28;20188;-74
2023/09/16 21:07:59;;;;;;;6.10;5.45;;;;;;;-145.68;100.00;73449.81;10447473;28;20215;-74
2023/09/16 21:13:00;;;;;;;6.82;6.07;;;;;;;-145.68;100.00;73461.81;10429275;28;20210;-75
2023/09/16 21:18:01;;;;;;;7.47;5.80;;;;;;;-145.68;100.00;73441.81;10446726;28;20215;-75
2023/09/16 21:23:01;;;;;;;5.70;5.15;;;;;;;-145.68;100.00;73439.84;10445633;28;20723;-74
2023/09/16 21:28:02;;;;;;;8.55;4.97;;;;;;;-145.68;100.00;73459.81;10450003;28;20707;-74
2023/09/16 21:33:03;;;;;;;6.47;5.28;;;;;;;-145.68;100.00;73471.81;10433367;28;20294;-74
2023/09/16 21:38:03;;;;;;;12.75;5.70;;;;;;;-145.68;100.00;73459.81;10419732;28;20186;-74
2023/09/16 21:43:04;;;;;;;8.65;5.63;;;;;;;-145.68;100.00;73459.81;10453092;28;20666;-74
2023/09/16 21:48:04;;;;;;;6.07;5.47;;;;;;;-145.68;100.00;73457.81;10453169;28;20234;-74
2023/09/16 21:53:09;;;;;;;6.63;4.40;;;;;;;-145.68;100.00;73453.81;10453694;28;20683;-75
2023/09/16 21:58:09;;;;;;;5.43;4.90;;;;;;;-145.68;100.00;73459.81;10452677;28;20199;-75
2023/09/16 22:03:10;;;;;;;5.72;5.22;;;;;;;-145.68;100.00;73449.81;10452914;28;20198;-75
2023/09/16 22:08:10;;;;;;;5.78;5.05;;;;;;;-145.68;100.00;73477.81;10452612;28;20266;-75
2023/09/16 22:13:12;;;;;;;5.30;4.78;;;;;;;-145.68;100.00;73453.81;10455722;28;20205;-75
2023/09/16 22:18:12;;;;;;;5.75;4.95;;;;;;;-145.68;100.00;73459.81;10452459;28;20199;-75
2023/09/16 22:23:13;;;;;;;6.38;4.80;;;;;;;-145.68;100.00;73453.81;10448320;28;20562;-75
2023/09/16 22:28:13;;;;;;;5.97;5.22;;;;;;;-145.68;100.00;73457.81;10451425;28;20220;-75
2023/09/16 22:33:13;;;;;;;6.70;5.00;;;;;;;-145.68;100.00;73467.81;10451830;28;20191;-75
2023/09/16 22:38:14;;;;;;;6.40;5.60;;;;;;;-145.68;100.00;73451.81;10455704;28;20198;-75
2023/09/16 22:43:14;;;;;;;8.15;5.68;;;;;;;-145.68;100.00;73447.81;10450552;28;20188;-75
2023/09/16 22:48:14;;;;;;;6.22;5.40;;;;;;;-145.68;100.00;73439.84;10451127;28;20265;-75